Clearwater, Canada
Current Conditions -  °F | °C
As of 2:00 AM on Thursday 29 Jan 2015 (Local Time) from CYKA Reporting Station
Overcast Overcast  
Wind Chill: 29°   Ceiling: 1600
Heat Index: 36°   Visibility: 15mi
Dew Point: 30°   Wind: 9mph
Humidity: 81%   Direction: 110°ESE
Pressure: 30.45"   Gusts: NA
Location:  51.65°N, 120.03°W
Report Text: CYKA 291000Z 11008KT 15SM OVC016 02/M01 A3045 RMK ST8 SLP329
Loading
Personal Weather Stations






























Interactive Weather Map New forecast layout! Learn more

10-Day Weather Forecast

Advertisements
Track Severe Weather on mobile